createdAt,value
2018-09-25T00:01:41.112Z,0.90
2018-09-25T00:04:18.028Z,1.10
2018-09-25T00:06:51.464Z,0.90
2018-09-25T00:09:31.767Z,1.20
2018-09-25T00:12:06.252Z,1.20
2018-09-25T00:14:39.936Z,0.95
2018-09-25T00:17:13.587Z,0.98
2018-09-25T00:19:47.304Z,0.95
2018-09-25T00:22:21.386Z,1.10
2018-09-25T00:24:55.086Z,1.10
2018-09-25T00:27:28.773Z,1.10
2018-09-25T00:30:02.435Z,1.40
2018-09-25T00:32:36.147Z,0.70
2018-09-25T00:35:09.732Z,1.00
2018-09-25T00:37:43.322Z,1.02
2018-09-25T00:40:21.972Z,0.70
2018-09-25T00:42:55.594Z,1.15
2018-09-25T00:45:29.149Z,1.05
2018-09-25T00:48:02.743Z,1.20
2018-09-25T00:50:36.323Z,1.10
2018-09-25T00:53:09.955Z,0.95
2018-09-25T00:55:43.589Z,1.40
2018-09-25T00:58:17.340Z,1.27
2018-09-25T01:05:50.251Z,0.88
2018-09-25T01:08:25.844Z,0.72
2018-09-25T01:10:59.467Z,0.93
2018-09-25T01:13:33.797Z,0.90
2018-09-25T01:16:07.440Z,1.30
2018-09-25T01:18:41.849Z,1.02
2018-09-25T01:21:15.468Z,1.33
2018-09-25T01:23:49.108Z,1.05
2018-09-25T01:26:26.965Z,0.90
2018-09-25T01:29:00.688Z,0.75
2018-09-25T01:31:34.310Z,0.85
2018-09-25T01:34:07.947Z,1.00
2018-09-25T01:36:41.549Z,1.03
2018-09-25T01:39:15.366Z,1.00
2018-09-25T01:41:49.001Z,1.10
2018-09-25T01:44:22.614Z,0.93
2018-09-25T01:46:56.338Z,1.03
2018-09-25T01:49:30.060Z,1.07
2018-09-25T01:52:03.623Z,1.13
2018-09-25T01:54:37.417Z,0.93
2018-09-25T01:57:11.009Z,1.30
2018-09-25T01:59:44.848Z,0.90
2018-09-25T02:02:21.033Z,0.93
2018-09-25T02:04:54.644Z,1.00
2018-09-25T02:07:28.175Z,0.70
2018-09-25T02:10:01.781Z,1.15
2018-09-25T02:12:35.960Z,1.10
2018-09-25T02:15:09.829Z,1.20
2018-09-25T02:17:43.455Z,0.90
2018-09-25T02:20:17.131Z,1.37
2018-09-25T02:22:50.712Z,1.17
2018-09-25T02:25:24.334Z,0.93
2018-09-25T02:27:57.896Z,1.07
2018-09-25T02:30:32.953Z,1.00
2018-09-25T02:33:06.565Z,0.80
2018-09-25T02:35:40.145Z,0.90
2018-09-25T02:38:13.591Z,0.90
2018-09-25T02:40:53.135Z,1.03
2018-09-25T02:43:26.728Z,0.88
2018-09-25T02:46:00.504Z,0.78
2018-09-25T02:48:34.809Z,1.32
2018-09-25T02:51:08.520Z,0.80
2018-09-25T02:53:42.075Z,1.57
2018-09-25T02:56:15.856Z,1.10
2018-09-25T02:58:49.381Z,1.10
2018-09-25T03:01:23.352Z,1.03
2018-09-25T03:03:57.114Z,1.10
2018-09-25T03:06:32.609Z,0.98
2018-09-25T03:09:06.165Z,1.12
2018-09-25T03:11:39.774Z,1.15
2018-09-25T03:14:13.559Z,1.10
2018-09-25T03:16:47.156Z,1.10
2018-09-25T03:19:20.894Z,1.10
2018-09-25T03:21:54.564Z,1.27
2018-09-25T03:24:28.722Z,1.50
2018-09-25T03:27:02.454Z,1.40
2018-09-25T03:29:37.345Z,1.52
2018-09-25T03:32:10.957Z,1.30
2018-09-25T03:34:44.599Z,1.40
2018-09-25T03:37:18.230Z,1.27
2018-09-25T03:39:51.930Z,1.42
2018-09-25T03:42:25.570Z,1.20
2018-09-25T03:45:00.589Z,1.92
2018-09-25T03:47:34.156Z,1.13
2018-09-25T03:50:07.935Z,1.25
2018-09-25T03:52:42.747Z,1.20
2018-09-25T03:55:16.448Z,1.70
2018-09-25T03:57:50.200Z,1.15
2018-09-25T04:00:23.812Z,1.40
2018-09-25T04:02:58.237Z,1.47
2018-09-25T04:05:31.955Z,1.45
2018-09-25T04:08:05.647Z,1.07
2018-09-25T04:10:43.790Z,1.60
2018-09-25T04:13:17.404Z,1.60
2018-09-25T04:15:51.100Z,1.60
2018-09-25T04:18:24.801Z,1.65
2018-09-25T04:20:58.422Z,1.43
2018-09-25T04:23:31.975Z,1.57
2018-09-25T04:26:05.566Z,1.60
2018-09-25T04:28:39.409Z,1.57
2018-09-25T04:31:13.233Z,1.73
2018-09-25T04:33:46.855Z,1.62
2018-09-25T04:36:20.593Z,1.50
2018-09-25T04:38:54.291Z,1.65
2018-09-25T04:41:27.915Z,1.30
2018-09-25T04:44:01.507Z,1.22
2018-09-25T04:46:35.544Z,1.87
2018-09-25T04:49:09.085Z,1.60
2018-09-25T04:51:43.000Z,2.03
2018-09-25T04:54:16.679Z,1.62
2018-09-25T04:56:50.320Z,1.70
2018-09-25T04:59:24.863Z,1.67
2018-09-25T05:01:58.683Z,1.40
2018-09-25T05:04:32.446Z,1.55
2018-09-25T05:07:06.041Z,1.90
2018-09-25T05:09:39.620Z,1.60
2018-09-25T05:12:13.197Z,1.20
2018-09-25T05:14:49.861Z,1.45
2018-09-25T05:17:23.467Z,1.55
2018-09-25T05:19:58.013Z,1.40
2018-09-25T05:22:31.786Z,1.30
2018-09-25T05:25:05.335Z,1.40
2018-09-25T05:27:38.916Z,1.30
2018-09-25T05:30:12.507Z,1.45
2018-09-25T05:32:46.079Z,1.47
2018-09-25T05:35:19.793Z,1.40
2018-09-25T05:37:53.453Z,1.27
2018-09-25T05:40:27.091Z,1.65
2018-09-25T05:43:00.810Z,1.30
2018-09-25T05:45:34.436Z,1.30
2018-09-25T05:48:08.036Z,1.40
2018-09-25T05:50:41.817Z,1.63
2018-09-25T05:53:15.600Z,1.92
2018-09-25T05:55:49.363Z,1.60
2018-09-25T05:58:23.035Z,1.75
2018-09-25T06:00:56.896Z,1.62
2018-09-25T06:03:30.514Z,1.70
2018-09-25T06:06:04.132Z,1.80
2018-09-25T06:08:37.728Z,1.70
2018-09-25T06:11:11.392Z,2.07
2018-09-25T06:13:45.110Z,2.12
2018-09-25T06:16:19.356Z,2.00
2018-09-25T06:18:53.937Z,2.25
2018-09-25T06:21:27.528Z,1.37
2018-09-25T06:24:01.207Z,1.85
2018-09-25T06:26:34.891Z,1.63
2018-09-25T06:29:08.545Z,1.60
2018-09-25T06:31:42.336Z,1.70
2018-09-25T06:34:15.932Z,1.77
2018-09-25T06:36:49.797Z,1.90
2018-09-25T06:39:24.053Z,1.77
2018-09-25T06:41:57.687Z,1.93
2018-09-25T06:44:31.164Z,1.77
2018-09-25T06:47:04.804Z,1.87
2018-09-25T06:49:38.978Z,2.20
2018-09-25T06:52:12.735Z,2.10
2018-09-25T06:54:46.470Z,2.00
2018-09-25T06:57:20.177Z,2.50
2018-09-25T06:59:53.915Z,3.20
2018-09-25T07:02:27.684Z,2.47
2018-09-25T07:05:03.858Z,2.70
2018-09-25T07:07:37.510Z,2.50
2018-09-25T07:10:11.280Z,2.47
2018-09-25T07:12:44.607Z,2.60
2018-09-25T07:15:18.242Z,2.70
2018-09-25T07:17:52.183Z,2.70
2018-09-25T07:20:25.737Z,2.60
2018-09-25T07:23:03.451Z,2.50
2018-09-25T07:25:37.016Z,2.43
2018-09-25T07:28:10.572Z,2.40
2018-09-25T07:30:44.241Z,2.47
2018-09-25T07:33:18.512Z,2.37
2018-09-25T07:35:52.088Z,2.67
2018-09-25T07:38:26.418Z,2.75
2018-09-25T07:41:00.356Z,2.20
2018-09-25T07:43:34.038Z,2.17
2018-09-25T07:46:07.799Z,2.37
2018-09-25T07:48:41.556Z,2.55
2018-09-25T07:51:15.290Z,3.03
2018-09-25T07:53:48.985Z,3.05
2018-09-25T07:56:22.696Z,3.70
2018-09-25T07:59:00.099Z,2.37
2018-09-25T08:01:34.386Z,2.57
2018-09-25T08:04:08.165Z,3.07
2018-09-25T08:06:41.773Z,2.77
2018-09-25T08:09:15.894Z,2.40
2018-09-25T08:11:49.624Z,2.80
2018-09-25T08:14:23.291Z,3.83
2018-09-25T08:16:57.081Z,3.60
2018-09-25T08:19:30.692Z,3.27
2018-09-25T08:22:04.385Z,3.17
2018-09-25T08:24:37.996Z,2.90
2018-09-25T08:27:12.628Z,2.90
2018-09-25T08:29:46.250Z,3.07
2018-09-25T08:32:19.880Z,3.20
2018-09-25T08:34:53.486Z,2.60
2018-09-25T08:37:27.135Z,3.15
2018-09-25T08:40:00.748Z,3.50
2018-09-25T08:42:34.349Z,2.80
2018-09-25T08:45:11.182Z,3.37
2018-09-25T08:47:44.805Z,2.70
2018-09-25T08:50:18.464Z,3.03
2018-09-25T08:52:52.235Z,3.63
2018-09-25T08:55:26.772Z,3.10
2018-09-25T08:58:00.417Z,2.37
2018-09-25T09:00:34.063Z,3.07
2018-09-25T09:03:07.727Z,3.00
2018-09-25T09:05:41.457Z,2.57
2018-09-25T09:08:15.275Z,2.83
2018-09-25T09:10:48.845Z,2.17
2018-09-25T09:13:22.905Z,2.43
2018-09-25T09:15:56.522Z,2.63
2018-09-25T09:18:30.013Z,2.03
2018-09-25T09:21:03.644Z,1.80
2018-09-25T09:23:41.553Z,1.83
2018-09-25T09:26:15.155Z,2.43
2018-09-25T09:28:48.849Z,2.53
2018-09-25T09:31:24.338Z,2.43
2018-09-25T09:33:58.583Z,1.90
2018-09-25T09:36:32.278Z,1.83
2018-09-25T09:39:09.576Z,1.80
2018-09-25T09:41:44.444Z,1.47
2018-09-25T09:44:17.853Z,1.70
2018-09-25T09:46:51.480Z,1.10
2018-09-25T09:49:26.957Z,1.00
2018-09-25T09:52:00.625Z,1.23
2018-09-25T09:54:34.275Z,1.13
2018-09-25T09:57:08.926Z,1.13
2018-09-25T09:59:45.560Z,1.40
2018-09-25T10:02:19.206Z,1.10
2018-09-25T10:04:52.781Z,1.00
2018-09-25T10:07:27.612Z,1.40
2018-09-25T10:10:01.212Z,1.50
2018-09-25T10:12:35.255Z,1.23
2018-09-25T10:15:08.807Z,0.87
2018-09-25T10:17:48.878Z,1.10
2018-09-25T10:20:22.554Z,0.80
2018-09-25T10:22:56.335Z,0.87
2018-09-25T10:25:33.346Z,0.90
2018-09-25T10:28:07.108Z,0.80
2018-09-25T10:30:40.694Z,1.13
2018-09-25T10:33:16.192Z,1.23
2018-09-25T10:35:49.760Z,0.90
2018-09-25T10:38:23.335Z,1.10
2018-09-25T10:40:56.940Z,1.00
2018-09-25T10:43:33.395Z,1.10
2018-09-25T10:46:06.984Z,1.07
2018-09-25T10:48:40.622Z,1.10
2018-09-25T10:51:17.292Z,0.67
2018-09-25T10:53:51.586Z,0.80
2018-09-25T10:56:25.236Z,0.60
2018-09-25T10:58:58.946Z,0.87
2018-09-25T11:01:35.199Z,0.70
2018-09-25T11:04:08.633Z,0.73
2018-09-25T11:06:42.360Z,0.63
2018-09-25T11:09:21.123Z,0.77
2018-09-25T11:11:54.755Z,0.60
2018-09-25T11:14:28.376Z,0.60
2018-09-25T11:17:01.829Z,0.53
2018-09-25T11:19:35.494Z,0.50
2018-09-25T11:22:09.126Z,0.60
2018-09-25T11:24:42.724Z,0.57
2018-09-25T11:27:16.267Z,0.83
2018-09-25T11:29:49.965Z,0.60
2018-09-25T11:32:23.584Z,0.37
2018-09-25T11:34:57.231Z,0.80
2018-09-25T11:37:31.032Z,0.70
2018-09-25T11:40:04.689Z,0.70
2018-09-25T11:42:38.268Z,0.53
2018-09-25T11:45:12.055Z,0.50
2018-09-25T11:47:46.551Z,0.73
2018-09-25T11:50:20.180Z,0.67
2018-09-25T11:52:53.906Z,0.70
2018-09-25T11:55:35.778Z,0.60
2018-09-25T11:58:09.420Z,0.50
2018-09-25T12:00:43.172Z,0.60
2018-09-25T12:03:16.979Z,0.60
2018-09-25T12:05:52.885Z,0.93
2018-09-25T12:08:26.663Z,0.83
2018-09-25T12:11:00.153Z,0.73
2018-09-25T12:13:36.803Z,0.63
2018-09-25T12:16:17.225Z,0.50
2018-09-25T12:18:50.793Z,0.60
2018-09-25T12:21:24.922Z,0.70
2018-09-25T12:23:59.883Z,1.10
2018-09-25T12:26:33.603Z,0.80
2018-09-25T12:29:07.331Z,0.60
2018-09-25T12:31:40.950Z,0.73
2018-09-25T12:34:14.497Z,0.70
2018-09-25T12:36:48.851Z,0.60
2018-09-25T12:39:22.448Z,0.60
2018-09-25T12:41:56.151Z,0.63
2018-09-25T12:44:29.654Z,0.97
2018-09-25T12:47:03.348Z,0.60
2018-09-25T12:49:39.662Z,0.50
2018-09-25T12:52:13.327Z,0.63
2018-09-25T12:54:46.940Z,0.80
2018-09-25T12:57:20.580Z,0.60
2018-09-25T12:59:54.832Z,0.87
2018-09-25T13:02:28.338Z,0.60
2018-09-25T13:05:02.077Z,0.70
2018-09-25T13:07:38.707Z,0.50
2018-09-25T13:10:12.562Z,0.50
2018-09-25T13:12:46.223Z,0.63
2018-09-25T13:15:19.799Z,0.70
2018-09-25T13:17:56.502Z,0.50
2018-09-25T13:20:30.240Z,0.80
2018-09-25T13:23:04.043Z,0.40
2018-09-25T13:25:40.079Z,0.50
2018-09-25T13:28:13.709Z,0.43
2018-09-25T13:30:47.323Z,0.60
2018-09-25T13:33:20.991Z,0.60
2018-09-25T13:35:54.677Z,0.50
2018-09-25T13:38:28.275Z,0.83
2018-09-25T13:41:01.928Z,0.70
2018-09-25T13:43:36.555Z,0.40
2018-09-25T13:46:10.341Z,0.70
2018-09-25T13:48:44.139Z,0.63
2018-09-25T13:51:17.831Z,0.60
2018-09-25T13:53:52.814Z,0.40
2018-09-25T13:56:26.516Z,0.50
2018-09-25T13:59:00.295Z,0.70
2018-09-25T14:04:12.380Z,0.70
2018-09-25T14:06:46.072Z,0.60
2018-09-25T14:09:19.796Z,0.80
2018-09-25T14:11:54.531Z,1.07
2018-09-25T14:14:28.173Z,0.77
2018-09-25T14:17:02.646Z,0.60
2018-09-25T14:19:37.251Z,0.40
2018-09-25T14:22:11.647Z,0.80
2018-09-25T14:24:45.200Z,0.80
2018-09-25T14:27:19.581Z,0.73
2018-09-25T14:29:53.423Z,0.70
2018-09-25T14:32:27.048Z,0.60
2018-09-25T14:35:00.697Z,0.90
2018-09-25T14:37:34.383Z,0.50
2018-09-25T14:40:08.848Z,0.80
2018-09-25T14:42:42.560Z,0.80
2018-09-25T14:48:20.900Z,0.80
2018-09-25T14:50:54.551Z,0.83
2018-09-25T14:53:28.276Z,0.80
2018-09-25T14:56:01.895Z,0.77
2018-09-25T14:58:35.586Z,0.73
2018-09-25T15:01:09.200Z,0.50
2018-09-25T15:03:44.427Z,0.50
2018-09-25T15:06:18.052Z,0.50
2018-09-25T15:08:51.672Z,0.50
2018-09-25T15:11:25.356Z,0.60
2018-09-25T15:13:59.078Z,0.60
2018-09-25T15:16:32.917Z,0.60
2018-09-25T15:19:06.545Z,0.60
2018-09-25T15:21:40.308Z,0.50
2018-09-25T15:24:21.674Z,0.47
2018-09-25T15:26:55.797Z,0.70
2018-09-25T15:29:31.281Z,0.50
2018-09-25T15:32:05.707Z,0.43
2018-09-25T15:34:39.176Z,0.67
2018-09-25T15:37:12.815Z,0.57
2018-09-25T15:39:48.364Z,0.50
2018-09-25T15:42:21.835Z,0.50
2018-09-25T15:44:55.635Z,0.60
2018-09-25T15:47:29.336Z,0.43
2018-09-25T15:50:03.644Z,0.43
2018-09-25T15:52:37.448Z,0.50
2018-09-25T15:55:11.037Z,0.43
2018-09-25T15:57:44.801Z,0.83
2018-09-25T16:00:18.509Z,0.37
2018-09-25T16:02:52.251Z,0.50
2018-09-25T16:05:25.840Z,0.43
2018-09-25T16:08:00.593Z,0.60
2018-09-25T16:10:34.401Z,0.43
2018-09-25T16:13:08.179Z,0.57
2018-09-25T16:15:41.860Z,0.40
2018-09-25T16:18:15.517Z,0.77
2018-09-25T16:20:49.279Z,0.50
2018-09-25T16:23:22.915Z,0.50
2018-09-25T16:26:00.718Z,0.60
2018-09-25T16:28:34.469Z,0.50
2018-09-25T16:31:10.915Z,0.30
2018-09-25T16:33:44.586Z,0.90
2018-09-25T16:36:18.681Z,0.70
2018-09-25T16:38:52.247Z,0.33
2018-09-25T16:41:25.980Z,0.60
2018-09-25T16:44:03.073Z,0.50
2018-09-25T16:46:36.777Z,0.70
2018-09-25T16:49:10.549Z,0.70
2018-09-25T16:51:44.187Z,0.53
2018-09-25T16:54:18.471Z,0.70
2018-09-25T16:56:52.039Z,0.60
2018-09-25T16:59:26.535Z,1.00
2018-09-25T17:02:00.090Z,1.13
2018-09-25T17:04:33.854Z,1.20
2018-09-25T17:07:07.468Z,1.10
2018-09-25T17:09:41.093Z,1.57
2018-09-25T17:12:25.986Z,1.30
2018-09-25T17:14:59.864Z,0.60
2018-09-25T17:17:33.609Z,0.70
2018-09-25T17:20:07.175Z,0.50
2018-09-25T17:22:41.006Z,0.53
2018-09-25T17:25:14.536Z,0.50
2018-09-25T17:27:48.133Z,0.40
2018-09-25T17:30:21.937Z,0.57
2018-09-25T17:32:55.630Z,0.50
2018-09-25T17:35:29.307Z,0.40
2018-09-25T17:38:03.584Z,0.43
2018-09-25T17:40:37.480Z,0.30
2018-09-25T17:43:11.073Z,0.40
2018-09-25T17:46:16.806Z,0.40
2018-09-25T17:48:51.824Z,0.70
2018-09-25T17:51:25.443Z,0.70
2018-09-25T17:54:01.592Z,1.27
2018-09-25T17:56:35.876Z,1.30
2018-09-25T17:59:09.340Z,1.63
2018-09-25T18:01:43.008Z,1.57
2018-09-25T18:04:19.188Z,1.50
2018-09-25T18:06:52.665Z,1.73
2018-09-25T18:09:26.157Z,1.33
2018-09-25T18:11:59.888Z,1.60
2018-09-25T18:14:33.616Z,1.40
2018-09-25T18:17:07.419Z,1.42
2018-09-25T18:19:41.267Z,1.60
2018-09-25T18:22:15.112Z,1.70
2018-09-25T18:24:48.695Z,1.43
2018-09-25T18:27:22.249Z,1.43
2018-09-25T18:29:56.100Z,2.07
2018-09-25T18:32:29.812Z,1.33
2018-09-25T18:35:03.545Z,1.33
2018-09-25T18:37:37.108Z,1.00
2018-09-25T18:40:10.820Z,1.10
2018-09-25T18:42:44.602Z,1.10
2018-09-25T18:45:18.240Z,0.70
2018-09-25T18:47:52.065Z,0.90
2018-09-25T18:50:25.568Z,0.67
2018-09-25T18:52:59.149Z,1.17
2018-09-25T18:55:32.674Z,0.70
2018-09-25T18:58:06.371Z,0.73
2018-09-25T19:00:40.273Z,0.80
2018-09-25T19:03:13.794Z,0.60
2018-09-25T19:05:47.381Z,1.07
2018-09-25T19:08:20.915Z,1.00
2018-09-25T19:10:54.567Z,0.80
2018-09-25T19:13:28.240Z,0.97
2018-09-25T19:16:01.951Z,0.77
2018-09-25T19:18:40.017Z,1.00
2018-09-25T19:21:13.691Z,0.67
2018-09-25T19:23:47.316Z,0.90
2018-09-25T19:26:24.005Z,0.70
2018-09-25T19:28:57.869Z,1.05
2018-09-25T19:31:31.348Z,1.20
2018-09-25T19:34:04.990Z,1.30
2018-09-25T19:36:41.859Z,0.90
2018-09-25T19:39:15.507Z,1.27
2018-09-25T19:41:49.262Z,0.90
2018-09-25T19:44:25.421Z,0.95
2018-09-25T19:46:58.920Z,0.90
2018-09-25T19:49:32.767Z,0.98
2018-09-25T19:52:06.586Z,1.00
2018-09-25T19:54:40.772Z,1.17
2018-09-25T19:57:14.357Z,1.03
2018-09-25T19:59:48.124Z,1.27
2018-09-25T20:02:24.665Z,0.95
2018-09-25T20:04:58.257Z,0.90
2018-09-25T20:07:31.988Z,0.93
2018-09-25T20:10:05.654Z,0.90
2018-09-25T20:12:39.410Z,0.75
2018-09-25T20:15:13.152Z,0.68
2018-09-25T20:17:47.610Z,0.93
2018-09-25T20:20:22.023Z,1.00
2018-09-25T20:22:55.592Z,1.00
2018-09-25T20:25:29.231Z,0.82
2018-09-25T20:28:02.761Z,1.02
2018-09-25T20:30:37.504Z,0.77
2018-09-25T20:33:11.079Z,1.30
2018-09-25T20:35:44.760Z,1.20
2018-09-25T20:38:21.920Z,0.95
2018-09-25T20:40:55.754Z,1.10
2018-09-25T20:43:35.970Z,0.93
2018-09-25T20:46:09.596Z,1.17
2018-09-25T20:48:44.537Z,1.00
2018-09-25T20:51:18.304Z,0.90
2018-09-25T20:53:52.059Z,0.90
2018-09-25T20:56:27.956Z,1.00
2018-09-25T20:59:01.610Z,0.80
2018-09-25T21:01:35.547Z,0.97
2018-09-25T21:04:09.070Z,1.10
2018-09-25T21:06:43.498Z,0.80
2018-09-25T21:09:17.233Z,1.00
2018-09-25T21:11:50.704Z,1.10
2018-09-25T21:14:25.052Z,1.00
2018-09-25T21:16:59.399Z,1.40
2018-09-25T21:19:32.935Z,1.20
2018-09-25T21:22:06.693Z,1.30
2018-09-25T21:24:41.093Z,1.20
2018-09-25T21:27:14.760Z,0.90
2018-09-25T21:29:55.043Z,1.40
2018-09-25T21:32:29.522Z,1.07
2018-09-25T21:35:03.133Z,1.20
2018-09-25T21:37:36.761Z,1.03
2018-09-25T21:40:10.473Z,1.00
2018-09-25T21:42:44.269Z,1.30
2018-09-25T21:45:17.975Z,1.20
2018-09-25T21:47:51.747Z,0.98
2018-09-25T21:50:28.943Z,1.32
2018-09-25T21:53:02.743Z,1.37
2018-09-25T21:55:36.472Z,1.25
2018-09-25T21:58:10.244Z,1.10
2018-09-25T22:00:44.372Z,1.20
2018-09-25T22:03:18.107Z,1.10
2018-09-25T22:05:51.872Z,1.10
2018-09-25T22:08:26.264Z,1.05
2018-09-25T22:11:00.055Z,0.97
2018-09-25T22:13:33.686Z,1.10
2018-09-25T22:16:07.350Z,1.05
2018-09-25T22:18:43.904Z,1.10
2018-09-25T22:21:17.467Z,1.20
2018-09-25T22:23:51.113Z,1.07
2018-09-25T22:26:24.733Z,1.00
2018-09-25T22:28:58.472Z,1.30
2018-09-25T22:31:32.177Z,1.20
2018-09-25T22:34:06.042Z,1.02
2018-09-25T22:36:42.994Z,1.10
2018-09-25T22:39:16.709Z,0.95
2018-09-25T22:41:50.297Z,1.00
2018-09-25T22:44:23.887Z,0.90
2018-09-25T22:46:58.211Z,1.27
2018-09-25T22:49:31.824Z,1.07
2018-09-25T22:52:05.487Z,0.80
2018-09-25T22:54:42.348Z,0.90
2018-09-25T22:57:15.867Z,1.13
2018-09-25T22:59:49.643Z,1.20
2018-09-25T23:02:23.435Z,1.33
2018-09-25T23:04:57.105Z,0.75
2018-09-25T23:07:30.754Z,1.37
2018-09-25T23:10:04.500Z,1.00
2018-09-25T23:12:37.953Z,0.90
2018-09-25T23:15:11.735Z,0.90
2018-09-25T23:17:45.408Z,0.90
2018-09-25T23:20:19.084Z,0.95
2018-09-25T23:22:52.883Z,1.00
2018-09-25T23:25:26.465Z,1.27
2018-09-25T23:28:00.136Z,1.05
2018-09-25T23:30:33.679Z,0.85
2018-09-25T23:33:07.387Z,0.93
2018-09-25T23:35:40.996Z,1.20
2018-09-25T23:38:14.748Z,0.90
2018-09-25T23:42:51.775Z,1.10
2018-09-25T23:47:32.798Z,0.80
2018-09-25T23:50:11.245Z,0.70
2018-09-25T23:53:18.013Z,1.10
2018-09-25T23:55:52.480Z,1.07
2018-09-25T23:58:24.024Z,0.80
